EPRZ/RZE METAR and TAF weather

Enter ICAO airport designator
Station Type Date Time Source
EPRZ METAR 2019/06/20 07:00 UTC NOAA

EPRZ 200700Z 21009KT CAVOK 22/18 Q1013


Station Type Date Time Source
EPRZ Decoded METAR 2019/06/20 07:00 UTC NOAA

Rzeszow-Jasionka, Poland (EPRZ) 50-06N 022-03E 202M
Jun 20, 2019 - 03:00 AM EDT / 2019.06.20 0700 UTC
Wind: from the SSW (210 degrees) at 10 MPH (9 KT):0
Visibility: greater than 7 mile(s):0
Temperature: 71 F (22 C)
Dew Point: 64 F (18 C)
Relative Humidity: 78%
Pressure (altimeter): 29.91 in. Hg (1013 hPa)
ob: EPRZ 200700Z 21009KT CAVOK 22/18 Q1013
cycle: 7

Station Type Date Time Source
EPRZ TAF 2019/06/20 06:33 UTC NOAA

TAF EPRZ 200530Z 2006/2106 20007KT CAVOK
TEMPO 2010/2019 VRB20G30KT TSRA BKN033CB
TEMPO 2023/2103 3000 BR

Example: see airport list